sensor_id;sensor_type;location;lat;lon;timestamp;temperature;humidity
981;DHT22;479;53.514;9.994;2023-09-19T00:00:47;17.20;99.90
981;DHT22;479;53.514;9.994;2023-09-19T00:03:14;17.30;99.90
981;DHT22;479;53.514;9.994;2023-09-19T00:05:49;17.30;99.90
981;DHT22;479;53.514;9.994;2023-09-19T00:08:16;17.30;99.90
981;DHT22;479;53.514;9.994;2023-09-19T00:10:47;17.30;99.90
981;DHT22;479;53.514;9.994;2023-09-19T00:13:14;17.40;99.90
981;DHT22;479;53.514;9.994;2023-09-19T00:15:42;17.40;99.90
981;DHT22;479;53.514;9.994;2023-09-19T00:18:15;17.40;99.90
981;DHT22;479;53.514;9.994;2023-09-19T00:20:43;17.40;99.90
981;DHT22;479;53.514;9.994;2023-09-19T00:23:13;17.50;99.90
981;DHT22;479;53.514;9.994;2023-09-19T00:25:40;17.50;99.90
981;DHT22;479;53.514;9.994;2023-09-19T00:28:07;17.50;99.90
981;DHT22;479;53.514;9.994;2023-09-19T00:30:35;17.40;99.90
981;DHT22;479;53.514;9.994;2023-09-19T00:33:04;17.40;99.90
981;DHT22;479;53.514;9.994;2023-09-19T00:35:34;17.40;99.90
981;DHT22;479;53.514;9.994;2023-09-19T00:38:03;17.40;99.90
981;DHT22;479;53.514;9.994;2023-09-19T00:40:32;17.30;99.90
981;DHT22;479;53.514;9.994;2023-09-19T00:43:00;17.30;99.90
981;DHT22;479;53.514;9.994;2023-09-19T00:45:28;17.30;99.90
981;DHT22;479;53.514;9.994;2023-09-19T00:47:55;17.20;99.90
981;DHT22;479;53.514;9.994;2023-09-19T00:50:24;17.20;99.90
981;DHT22;479;53.514;9.994;2023-09-19T00:52:55;17.20;99.90
981;DHT22;479;53.514;9.994;2023-09-19T00:55:24;17.20;99.90
981;DHT22;479;53.514;9.994;2023-09-19T00:57:51;17.20;99.90
981;DHT22;479;53.514;9.994;2023-09-19T01:00:19;17.10;99.90
981;DHT22;479;53.514;9.994;2023-09-19T01:02:47;17.20;99.90
981;DHT22;479;53.514;9.994;2023-09-19T01:05:15;17.20;99.90
981;DHT22;479;53.514;9.994;2023-09-19T01:07:42;17.20;99.90
981;DHT22;479;53.514;9.994;2023-09-19T01:10:14;17.20;99.90
981;DHT22;479;53.514;9.994;2023-09-19T01:12:50;17.10;99.90
981;DHT22;479;53.514;9.994;2023-09-19T01:15:25;17.10;99.90
981;DHT22;479;53.514;9.994;2023-09-19T01:18:11;17.10;99.90
981;DHT22;479;53.514;9.994;2023-09-19T01:20:47;17.10;99.90
981;DHT22;479;53.514;9.994;2023-09-19T01:23:21;17.20;99.90
981;DHT22;479;53.514;9.994;2023-09-19T01:26:10;17.20;99.90
981;DHT22;479;53.514;9.994;2023-09-19T01:28:59;17.20;99.90
981;DHT22;479;53.514;9.994;2023-09-19T01:31:31;17.20;99.90
981;DHT22;479;53.514;9.994;2023-09-19T01:34:02;17.20;99.90
981;DHT22;479;53.514;9.994;2023-09-19T01:36:32;17.20;99.90
981;DHT22;479;53.514;9.994;2023-09-19T01:39:03;17.20;99.90
981;DHT22;479;53.514;9.994;2023-09-19T01:41:47;17.20;99.90
981;DHT22;479;53.514;9.994;2023-09-19T01:44:22;17.20;99.90
981;DHT22;479;53.514;9.994;2023-09-19T01:46:54;17.20;99.90
981;DHT22;479;53.514;9.994;2023-09-19T01:49:30;17.20;99.90
981;DHT22;479;53.514;9.994;2023-09-19T01:52:04;17.20;99.90
981;DHT22;479;53.514;9.994;2023-09-19T01:54:36;17.20;99.90
981;DHT22;479;53.514;9.994;2023-09-19T01:57:10;17.20;99.90
981;DHT22;479;53.514;9.994;2023-09-19T01:59:45;17.20;99.90
981;DHT22;479;53.514;9.994;2023-09-19T02:02:17;17.20;99.90
981;DHT22;479;53.514;9.994;2023-09-19T02:04:44;17.20;99.90
981;DHT22;479;53.514;9.994;2023-09-19T02:07:11;17.20;99.90
981;DHT22;479;53.514;9.994;2023-09-19T02:09:38;17.20;99.90
981;DHT22;479;53.514;9.994;2023-09-19T02:12:06;17.10;99.90
981;DHT22;479;53.514;9.994;2023-09-19T02:14:33;17.10;99.90
981;DHT22;479;53.514;9.994;2023-09-19T02:17:02;17.00;99.90
981;DHT22;479;53.514;9.994;2023-09-19T02:19:32;17.00;99.90
981;DHT22;479;53.514;9.994;2023-09-19T02:21:59;16.90;99.90
981;DHT22;479;53.514;9.994;2023-09-19T02:24:29;16.90;99.90
981;DHT22;479;53.514;9.994;2023-09-19T02:26:56;16.90;99.90
981;DHT22;479;53.514;9.994;2023-09-19T02:29:24;16.80;99.90
981;DHT22;479;53.514;9.994;2023-09-19T02:31:52;16.80;99.90
981;DHT22;479;53.514;9.994;2023-09-19T02:34:21;16.80;99.90
981;DHT22;479;53.514;9.994;2023-09-19T02:36:50;16.80;99.90
981;DHT22;479;53.514;9.994;2023-09-19T02:39:19;16.80;99.90
981;DHT22;479;53.514;9.994;2023-09-19T02:41:46;16.70;99.90
981;DHT22;479;53.514;9.994;2023-09-19T02:44:13;16.70;99.90
981;DHT22;479;53.514;9.994;2023-09-19T02:46:40;16.80;99.90
981;DHT22;479;53.514;9.994;2023-09-19T02:49:08;16.80;99.90
981;DHT22;479;53.514;9.994;2023-09-19T02:51:35;16.70;99.90
981;DHT22;479;53.514;9.994;2023-09-19T02:54:03;16.70;99.90
981;DHT22;479;53.514;9.994;2023-09-19T02:56:30;16.70;99.90
981;DHT22;479;53.514;9.994;2023-09-19T02:58:58;16.80;99.90
981;DHT22;479;53.514;9.994;2023-09-19T03:01:26;16.70;99.90
981;DHT22;479;53.514;9.994;2023-09-19T03:03:54;16.80;99.90
981;DHT22;479;53.514;9.994;2023-09-19T03:06:21;16.80;99.90
981;DHT22;479;53.514;9.994;2023-09-19T03:08:50;16.80;99.90
981;DHT22;479;53.514;9.994;2023-09-19T03:11:20;16.70;99.90
981;DHT22;479;53.514;9.994;2023-09-19T03:13:53;16.70;99.90
981;DHT22;479;53.514;9.994;2023-09-19T03:16:22;16.70;99.90
981;DHT22;479;53.514;9.994;2023-09-19T03:18:51;16.70;99.90
981;DHT22;479;53.514;9.994;2023-09-19T03:21:18;16.70;99.90
981;DHT22;479;53.514;9.994;2023-09-19T03:23:47;16.80;99.90
981;DHT22;479;53.514;9.994;2023-09-19T03:26:14;16.80;99.90
981;DHT22;479;53.514;9.994;2023-09-19T03:28:44;16.70;99.90
981;DHT22;479;53.514;9.994;2023-09-19T03:31:12;16.70;99.90
981;DHT22;479;53.514;9.994;2023-09-19T03:33:39;16.70;99.90
981;DHT22;479;53.514;9.994;2023-09-19T03:36:06;16.70;99.90
981;DHT22;479;53.514;9.994;2023-09-19T03:38:34;16.60;99.90
981;DHT22;479;53.514;9.994;2023-09-19T03:41:01;16.70;99.90
981;DHT22;479;53.514;9.994;2023-09-19T03:43:28;16.60;99.90
981;DHT22;479;53.514;9.994;2023-09-19T03:45:56;16.60;99.90
981;DHT22;479;53.514;9.994;2023-09-19T03:48:23;16.60;99.90
981;DHT22;479;53.514;9.994;2023-09-19T03:50:51;16.50;99.90
981;DHT22;479;53.514;9.994;2023-09-19T03:53:19;16.50;99.90
981;DHT22;479;53.514;9.994;2023-09-19T03:55:46;16.50;99.90
981;DHT22;479;53.514;9.994;2023-09-19T03:58:13;16.40;99.90
981;DHT22;479;53.514;9.994;2023-09-19T04:00:40;16.30;99.90
981;DHT22;479;53.514;9.994;2023-09-19T04:03:08;16.30;99.90
981;DHT22;479;53.514;9.994;2023-09-19T04:05:45;16.20;99.90
981;DHT22;479;53.514;9.994;2023-09-19T04:08:13;16.20;99.90
981;DHT22;479;53.514;9.994;2023-09-19T04:10:42;16.10;99.90
981;DHT22;479;53.514;9.994;2023-09-19T04:13:09;16.10;99.90
981;DHT22;479;53.514;9.994;2023-09-19T04:15:36;16.10;99.90
981;DHT22;479;53.514;9.994;2023-09-19T04:18:04;16.00;99.90
981;DHT22;479;53.514;9.994;2023-09-19T04:20:33;16.00;99.90
981;DHT22;479;53.514;9.994;2023-09-19T04:23:00;16.00;99.90
981;DHT22;479;53.514;9.994;2023-09-19T04:25:27;15.90;99.90
981;DHT22;479;53.514;9.994;2023-09-19T04:27:55;15.90;99.90
981;DHT22;479;53.514;9.994;2023-09-19T04:30:21;15.90;99.90
981;DHT22;479;53.514;9.994;2023-09-19T04:32:48;15.80;99.90
981;DHT22;479;53.514;9.994;2023-09-19T04:35:17;15.80;99.90
981;DHT22;479;53.514;9.994;2023-09-19T04:37:45;15.70;99.90
981;DHT22;479;53.514;9.994;2023-09-19T04:40:13;15.70;99.90
981;DHT22;479;53.514;9.994;2023-09-19T04:42:42;15.70;99.90
981;DHT22;479;53.514;9.994;2023-09-19T04:45:10;15.70;99.90
981;DHT22;479;53.514;9.994;2023-09-19T04:47:37;15.60;99.90
981;DHT22;479;53.514;9.994;2023-09-19T04:50:09;15.60;99.90
981;DHT22;479;53.514;9.994;2023-09-19T04:52:40;15.50;99.90
981;DHT22;479;53.514;9.994;2023-09-19T04:55:11;15.50;99.90
981;DHT22;479;53.514;9.994;2023-09-19T04:57:43;15.50;99.90
981;DHT22;479;53.514;9.994;2023-09-19T05:00:13;15.50;99.90
981;DHT22;479;53.514;9.994;2023-09-19T05:02:40;15.50;99.90
981;DHT22;479;53.514;9.994;2023-09-19T05:05:08;15.50;99.90
981;DHT22;479;53.514;9.994;2023-09-19T05:07:36;15.50;99.90
981;DHT22;479;53.514;9.994;2023-09-19T05:10:04;15.50;99.90
981;DHT22;479;53.514;9.994;2023-09-19T05:12:34;15.50;99.90
981;DHT22;479;53.514;9.994;2023-09-19T05:15:02;15.60;99.90
981;DHT22;479;53.514;9.994;2023-09-19T05:17:30;15.60;99.90
981;DHT22;479;53.514;9.994;2023-09-19T05:19:57;15.50;99.90
981;DHT22;479;53.514;9.994;2023-09-19T05:22:27;15.50;99.90
981;DHT22;479;53.514;9.994;2023-09-19T05:24:53;15.50;99.90
981;DHT22;479;53.514;9.994;2023-09-19T05:27:20;15.50;99.90
981;DHT22;479;53.514;9.994;2023-09-19T05:29:49;15.40;99.90
981;DHT22;479;53.514;9.994;2023-09-19T05:32:18;15.40;99.90
981;DHT22;479;53.514;9.994;2023-09-19T05:34:46;15.50;99.90
981;DHT22;479;53.514;9.994;2023-09-19T05:37:13;15.50;99.90
981;DHT22;479;53.514;9.994;2023-09-19T05:39:42;15.40;99.90
981;DHT22;479;53.514;9.994;2023-09-19T05:42:09;15.40;99.90
981;DHT22;479;53.514;9.994;2023-09-19T05:44:36;15.40;99.90
981;DHT22;479;53.514;9.994;2023-09-19T05:47:05;15.40;99.90
981;DHT22;479;53.514;9.994;2023-09-19T05:49:34;15.40;99.90
981;DHT22;479;53.514;9.994;2023-09-19T05:52:04;15.40;99.90
981;DHT22;479;53.514;9.994;2023-09-19T05:54:32;15.40;99.90
981;DHT22;479;53.514;9.994;2023-09-19T05:56:59;15.50;99.90
981;DHT22;479;53.514;9.994;2023-09-19T05:59:27;15.50;99.90
981;DHT22;479;53.514;9.994;2023-09-19T06:01:54;15.50;99.90
981;DHT22;479;53.514;9.994;2023-09-19T06:04:22;15.60;99.90
981;DHT22;479;53.514;9.994;2023-09-19T06:06:49;15.60;99.90
981;DHT22;479;53.514;9.994;2023-09-19T06:09:16;15.70;99.90
981;DHT22;479;53.514;9.994;2023-09-19T06:11:46;15.80;99.90
981;DHT22;479;53.514;9.994;2023-09-19T06:14:12;15.80;99.90
981;DHT22;479;53.514;9.994;2023-09-19T06:16:39;15.90;99.90
981;DHT22;479;53.514;9.994;2023-09-19T06:19:07;16.00;99.90
981;DHT22;479;53.514;9.994;2023-09-19T06:21:36;16.10;99.90
981;DHT22;479;53.514;9.994;2023-09-19T06:24:03;16.20;99.90
981;DHT22;479;53.514;9.994;2023-09-19T06:26:30;16.30;99.90
981;DHT22;479;53.514;9.994;2023-09-19T06:28:58;16.30;99.90
981;DHT22;479;53.514;9.994;2023-09-19T06:31:25;16.30;99.90
981;DHT22;479;53.514;9.994;2023-09-19T06:33:52;16.50;99.90
981;DHT22;479;53.514;9.994;2023-09-19T06:36:19;16.50;99.90
981;DHT22;479;53.514;9.994;2023-09-19T06:38:48;16.40;99.90
981;DHT22;479;53.514;9.994;2023-09-19T06:41:17;16.40;99.90
981;DHT22;479;53.514;9.994;2023-09-19T06:43:44;16.40;99.90
981;DHT22;479;53.514;9.994;2023-09-19T06:46:11;16.50;99.90
981;DHT22;479;53.514;9.994;2023-09-19T06:48:38;16.50;99.90
981;DHT22;479;53.514;9.994;2023-09-19T06:51:05;16.60;99.90
981;DHT22;479;53.514;9.994;2023-09-19T06:53:33;16.60;99.90
981;DHT22;479;53.514;9.994;2023-09-19T06:56:02;16.70;99.90
981;DHT22;479;53.514;9.994;2023-09-19T06:58:29;16.70;99.90
981;DHT22;479;53.514;9.994;2023-09-19T07:00:57;16.70;99.90
981;DHT22;479;53.514;9.994;2023-09-19T07:03:25;16.70;99.90
981;DHT22;479;53.514;9.994;2023-09-19T07:05:54;16.70;99.90
981;DHT22;479;53.514;9.994;2023-09-19T07:08:21;16.80;99.90
981;DHT22;479;53.514;9.994;2023-09-19T07:10:48;16.90;99.90
981;DHT22;479;53.514;9.994;2023-09-19T07:13:19;17.00;99.90
981;DHT22;479;53.514;9.994;2023-09-19T07:15:46;16.90;99.90
981;DHT22;479;53.514;9.994;2023-09-19T07:18:16;17.00;99.90
981;DHT22;479;53.514;9.994;2023-09-19T07:20:43;17.00;99.90
981;DHT22;479;53.514;9.994;2023-09-19T07:23:14;17.00;99.90
981;DHT22;479;53.514;9.994;2023-09-19T07:25:42;17.10;99.90
981;DHT22;479;53.514;9.994;2023-09-19T07:28:09;17.10;99.90
981;DHT22;479;53.514;9.994;2023-09-19T07:30:38;17.10;99.90
981;DHT22;479;53.514;9.994;2023-09-19T07:33:07;17.00;99.90
981;DHT22;479;53.514;9.994;2023-09-19T07:35:37;17.00;99.90
981;DHT22;479;53.514;9.994;2023-09-19T07:38:05;17.10;99.90
981;DHT22;479;53.514;9.994;2023-09-19T07:40:33;17.20;99.90
981;DHT22;479;53.514;9.994;2023-09-19T07:43:00;17.40;99.90
981;DHT22;479;53.514;9.994;2023-09-19T07:45:28;17.40;99.90
981;DHT22;479;53.514;9.994;2023-09-19T07:47:57;17.10;99.90
981;DHT22;479;53.514;9.994;2023-09-19T07:50:24;17.10;99.90
981;DHT22;479;53.514;9.994;2023-09-19T07:52:52;17.00;99.90
981;DHT22;479;53.514;9.994;2023-09-19T07:55:20;16.90;99.90
981;DHT22;479;53.514;9.994;2023-09-19T07:57:49;16.90;99.90
981;DHT22;479;53.514;9.994;2023-09-19T08:00:16;16.80;99.90
981;DHT22;479;53.514;9.994;2023-09-19T08:02:45;16.80;99.90
981;DHT22;479;53.514;9.994;2023-09-19T08:05:16;16.80;99.90
981;DHT22;479;53.514;9.994;2023-09-19T08:07:44;16.80;99.90
981;DHT22;479;53.514;9.994;2023-09-19T08:10:14;16.70;99.90
981;DHT22;479;53.514;9.994;2023-09-19T08:12:42;16.80;99.90
981;DHT22;479;53.514;9.994;2023-09-19T08:15:13;16.70;99.90
981;DHT22;479;53.514;9.994;2023-09-19T08:17:40;16.80;99.90
981;DHT22;479;53.514;9.994;2023-09-19T08:20:08;16.90;99.90
981;DHT22;479;53.514;9.994;2023-09-19T08:22:46;16.90;99.90
981;DHT22;479;53.514;9.994;2023-09-19T08:25:14;17.00;99.90
981;DHT22;479;53.514;9.994;2023-09-19T08:27:43;17.10;99.90
981;DHT22;479;53.514;9.994;2023-09-19T08:30:13;17.20;99.90
981;DHT22;479;53.514;9.994;2023-09-19T08:32:41;17.40;99.90
981;DHT22;479;53.514;9.994;2023-09-19T08:35:09;17.40;99.90
981;DHT22;479;53.514;9.994;2023-09-19T08:37:36;17.20;99.90
981;DHT22;479;53.514;9.994;2023-09-19T08:40:09;17.20;99.90
981;DHT22;479;53.514;9.994;2023-09-19T08:42:48;17.30;99.90
981;DHT22;479;53.514;9.994;2023-09-19T08:45:16;17.30;99.90
981;DHT22;479;53.514;9.994;2023-09-19T08:47:48;17.40;99.90
981;DHT22;479;53.514;9.994;2023-09-19T08:50:20;17.40;99.90
981;DHT22;479;53.514;9.994;2023-09-19T08:52:51;17.30;99.90
981;DHT22;479;53.514;9.994;2023-09-19T08:55:26;17.30;99.90
981;DHT22;479;53.514;9.994;2023-09-19T08:57:59;17.30;99.90
981;DHT22;479;53.514;9.994;2023-09-19T09:00:28;17.50;99.90
981;DHT22;479;53.514;9.994;2023-09-19T09:02:57;17.60;99.90
981;DHT22;479;53.514;9.994;2023-09-19T09:05:25;17.60;99.90
981;DHT22;479;53.514;9.994;2023-09-19T09:07:53;17.70;99.90
981;DHT22;479;53.514;9.994;2023-09-19T09:10:23;17.70;99.90
981;DHT22;479;53.514;9.994;2023-09-19T09:12:51;17.80;99.90
981;DHT22;479;53.514;9.994;2023-09-19T09:15:20;17.80;99.90
981;DHT22;479;53.514;9.994;2023-09-19T09:17:47;17.80;99.90
981;DHT22;479;53.514;9.994;2023-09-19T09:20:16;17.90;99.90
981;DHT22;479;53.514;9.994;2023-09-19T09:22:51;18.00;99.90
981;DHT22;479;53.514;9.994;2023-09-19T09:25:19;18.00;99.90
981;DHT22;479;53.514;9.994;2023-09-19T09:28:00;18.20;99.90
981;DHT22;479;53.514;9.994;2023-09-19T09:30:34;18.40;99.90
981;DHT22;479;53.514;9.994;2023-09-19T09:33:09;18.60;99.90
981;DHT22;479;53.514;9.994;2023-09-19T09:35:37;18.80;99.90
981;DHT22;479;53.514;9.994;2023-09-19T09:38:13;18.90;99.90
981;DHT22;479;53.514;9.994;2023-09-19T09:40:49;19.00;99.90
981;DHT22;479;53.514;9.994;2023-09-19T09:43:33;19.30;99.90
981;DHT22;479;53.514;9.994;2023-09-19T09:46:11;19.40;99.90
981;DHT22;479;53.514;9.994;2023-09-19T09:48:59;19.40;99.90
981;DHT22;479;53.514;9.994;2023-09-19T09:51:59;19.70;99.90
981;DHT22;479;53.514;9.994;2023-09-19T09:54:31;20.10;99.90
981;DHT22;479;53.514;9.994;2023-09-19T09:57:04;20.10;99.90
981;DHT22;479;53.514;9.994;2023-09-19T09:59:46;20.00;99.90
981;DHT22;479;53.514;9.994;2023-09-19T10:02:15;19.80;99.90
981;DHT22;479;53.514;9.994;2023-09-19T10:04:51;20.00;99.90
981;DHT22;479;53.514;9.994;2023-09-19T10:07:28;20.00;99.90
981;DHT22;479;53.514;9.994;2023-09-19T10:10:07;20.10;99.90
981;DHT22;479;53.514;9.994;2023-09-19T10:12:46;20.00;99.90
981;DHT22;479;53.514;9.994;2023-09-19T10:15:17;20.00;99.90
981;DHT22;479;53.514;9.994;2023-09-19T10:17:46;20.00;99.90
981;DHT22;479;53.514;9.994;2023-09-19T10:20:15;20.20;99.90
981;DHT22;479;53.514;9.994;2023-09-19T10:23:06;20.00;99.90
981;DHT22;479;53.514;9.994;2023-09-19T10:25:41;19.70;99.90
981;DHT22;479;53.514;9.994;2023-09-19T10:28:09;19.60;99.90
981;DHT22;479;53.514;9.994;2023-09-19T10:30:41;19.50;99.90
981;DHT22;479;53.514;9.994;2023-09-19T10:33:15;19.40;99.90
981;DHT22;479;53.514;9.994;2023-09-19T10:35:45;19.40;99.90
981;DHT22;479;53.514;9.994;2023-09-19T10:38:13;19.40;99.90
981;DHT22;479;53.514;9.994;2023-09-19T10:40:40;19.50;99.90
981;DHT22;479;53.514;9.994;2023-09-19T10:43:12;19.60;99.90
981;DHT22;479;53.514;9.994;2023-09-19T10:45:44;19.50;99.90
981;DHT22;479;53.514;9.994;2023-09-19T10:48:12;19.50;99.90
981;DHT22;479;53.514;9.994;2023-09-19T10:50:45;19.50;99.90
981;DHT22;479;53.514;9.994;2023-09-19T10:53:13;19.60;99.90
981;DHT22;479;53.514;9.994;2023-09-19T10:55:47;19.70;99.90
981;DHT22;479;53.514;9.994;2023-09-19T10:58:26;19.80;99.90
981;DHT22;479;53.514;9.994;2023-09-19T11:00:57;19.70;99.90
981;DHT22;479;53.514;9.994;2023-09-19T11:03:31;19.70;99.90
981;DHT22;479;53.514;9.994;2023-09-19T11:06:12;19.60;99.90
981;DHT22;479;53.514;9.994;2023-09-19T11:09:01;19.60;99.90
981;DHT22;479;53.514;9.994;2023-09-19T11:11:49;19.50;99.90
981;DHT22;479;53.514;9.994;2023-09-19T11:14:38;19.60;99.90
981;DHT22;479;53.514;9.994;2023-09-19T11:20:22;20.00;99.90
981;DHT22;479;53.514;9.994;2023-09-19T11:23:24;19.90;99.90
981;DHT22;479;53.514;9.994;2023-09-19T11:25:53;20.00;99.90
981;DHT22;479;53.514;9.994;2023-09-19T11:28:30;19.90;99.90
981;DHT22;479;53.514;9.994;2023-09-19T11:30:57;19.90;99.90
981;DHT22;479;53.514;9.994;2023-09-19T11:33:25;19.90;99.90
981;DHT22;479;53.514;9.994;2023-09-19T11:36:05;19.80;99.90
981;DHT22;479;53.514;9.994;2023-09-19T11:38:59;19.60;99.90
981;DHT22;479;53.514;9.994;2023-09-19T11:41:38;19.60;99.90
981;DHT22;479;53.514;9.994;2023-09-19T11:44:34;19.50;99.90
981;DHT22;479;53.514;9.994;2023-09-19T11:47:04;19.40;99.90
981;DHT22;479;53.514;9.994;2023-09-19T11:49:32;19.20;99.90
981;DHT22;479;53.514;9.994;2023-09-19T11:52:03;19.30;99.90
981;DHT22;479;53.514;9.994;2023-09-19T11:54:33;19.50;99.90
981;DHT22;479;53.514;9.994;2023-09-19T11:57:03;19.60;99.90
981;DHT22;479;53.514;9.994;2023-09-19T11:59:32;19.70;99.90
981;DHT22;479;53.514;9.994;2023-09-19T12:02:03;19.80;99.90
981;DHT22;479;53.514;9.994;2023-09-19T12:04:36;19.90;99.90
981;DHT22;479;53.514;9.994;2023-09-19T12:07:07;19.70;99.90
981;DHT22;479;53.514;9.994;2023-09-19T12:09:39;19.60;99.90
981;DHT22;479;53.514;9.994;2023-09-19T12:12:08;19.60;99.90
981;DHT22;479;53.514;9.994;2023-09-19T12:14:38;19.60;99.90
981;DHT22;479;53.514;9.994;2023-09-19T12:17:07;19.50;99.90
981;DHT22;479;53.514;9.994;2023-09-19T12:19:34;19.30;99.90
981;DHT22;479;53.514;9.994;2023-09-19T12:22:02;19.40;99.90
981;DHT22;479;53.514;9.994;2023-09-19T12:24:33;19.40;99.90
981;DHT22;479;53.514;9.994;2023-09-19T12:27:05;19.60;99.90
981;DHT22;479;53.514;9.994;2023-09-19T12:29:41;19.60;99.90
981;DHT22;479;53.514;9.994;2023-09-19T12:32:09;19.60;99.90
981;DHT22;479;53.514;9.994;2023-09-19T12:34:36;19.80;99.90
981;DHT22;479;53.514;9.994;2023-09-19T12:37:09;19.80;99.90
981;DHT22;479;53.514;9.994;2023-09-19T12:39:44;20.00;99.90
981;DHT22;479;53.514;9.994;2023-09-19T12:42:15;20.00;99.90
981;DHT22;479;53.514;9.994;2023-09-19T12:44:44;20.20;99.90
981;DHT22;479;53.514;9.994;2023-09-19T12:47:12;20.30;99.90
981;DHT22;479;53.514;9.994;2023-09-19T12:50:07;20.30;99.90
981;DHT22;479;53.514;9.994;2023-09-19T12:52:39;20.10;99.90
981;DHT22;479;53.514;9.994;2023-09-19T12:55:19;20.10;99.90
981;DHT22;479;53.514;9.994;2023-09-19T12:57:56;20.10;99.90
981;DHT22;479;53.514;9.994;2023-09-19T13:00:32;20.20;99.90
981;DHT22;479;53.514;9.994;2023-09-19T13:03:11;20.30;99.90
981;DHT22;479;53.514;9.994;2023-09-19T13:05:52;20.20;99.90
981;DHT22;479;53.514;9.994;2023-09-19T13:08:27;20.10;99.90
981;DHT22;479;53.514;9.994;2023-09-19T13:11:02;20.10;99.90
981;DHT22;479;53.514;9.994;2023-09-19T13:13:29;20.20;99.90
981;DHT22;479;53.514;9.994;2023-09-19T13:15:56;20.30;99.90
981;DHT22;479;53.514;9.994;2023-09-19T13:18:23;20.20;99.90
981;DHT22;479;53.514;9.994;2023-09-19T13:21:05;20.20;99.90
981;DHT22;479;53.514;9.994;2023-09-19T13:23:34;20.20;99.90
981;DHT22;479;53.514;9.994;2023-09-19T13:26:04;20.20;99.90
981;DHT22;479;53.514;9.994;2023-09-19T13:28:31;20.30;99.90
981;DHT22;479;53.514;9.994;2023-09-19T13:31:00;20.20;99.90
981;DHT22;479;53.514;9.994;2023-09-19T13:33:27;20.20;99.90
981;DHT22;479;53.514;9.994;2023-09-19T13:35:54;20.20;99.90
981;DHT22;479;53.514;9.994;2023-09-19T13:38:22;20.20;99.90
981;DHT22;479;53.514;9.994;2023-09-19T13:40:49;20.30;99.90
981;DHT22;479;53.514;9.994;2023-09-19T13:43:19;20.20;99.90
981;DHT22;479;53.514;9.994;2023-09-19T13:45:47;20.20;99.90
981;DHT22;479;53.514;9.994;2023-09-19T13:48:15;20.20;99.90
981;DHT22;479;53.514;9.994;2023-09-19T13:50:45;20.30;99.90
981;DHT22;479;53.514;9.994;2023-09-19T13:53:13;20.30;99.90
981;DHT22;479;53.514;9.994;2023-09-19T13:55:40;20.20;99.90
981;DHT22;479;53.514;9.994;2023-09-19T13:58:08;20.20;99.90
981;DHT22;479;53.514;9.994;2023-09-19T14:00:38;20.10;99.90
981;DHT22;479;53.514;9.994;2023-09-19T14:03:05;20.00;99.90
981;DHT22;479;53.514;9.994;2023-09-19T14:05:32;20.00;99.90
981;DHT22;479;53.514;9.994;2023-09-19T14:08:02;20.00;99.90
981;DHT22;479;53.514;9.994;2023-09-19T14:10:30;20.10;99.90
981;DHT22;479;53.514;9.994;2023-09-19T14:12:58;20.10;99.90
981;DHT22;479;53.514;9.994;2023-09-19T14:15:26;20.10;99.90
981;DHT22;479;53.514;9.994;2023-09-19T14:17:58;20.00;99.90
981;DHT22;479;53.514;9.994;2023-09-19T14:20:27;20.00;99.90
981;DHT22;479;53.514;9.994;2023-09-19T14:22:55;20.00;99.90
981;DHT22;479;53.514;9.994;2023-09-19T14:25:23;20.10;99.90
981;DHT22;479;53.514;9.994;2023-09-19T14:27:51;20.10;99.90
981;DHT22;479;53.514;9.994;2023-09-19T14:30:18;20.20;99.90
981;DHT22;479;53.514;9.994;2023-09-19T14:32:48;20.30;99.90
981;DHT22;479;53.514;9.994;2023-09-19T14:35:17;20.20;99.90
981;DHT22;479;53.514;9.994;2023-09-19T14:37:44;20.20;99.90
981;DHT22;479;53.514;9.994;2023-09-19T14:40:12;20.10;99.90
981;DHT22;479;53.514;9.994;2023-09-19T14:42:41;20.10;99.90
981;DHT22;479;53.514;9.994;2023-09-19T14:45:10;20.00;99.90
981;DHT22;479;53.514;9.994;2023-09-19T14:47:37;20.10;99.90
981;DHT22;479;53.514;9.994;2023-09-19T14:50:06;20.00;99.90
981;DHT22;479;53.514;9.994;2023-09-19T14:52:36;20.00;99.90
981;DHT22;479;53.514;9.994;2023-09-19T14:55:04;20.00;99.90
981;DHT22;479;53.514;9.994;2023-09-19T14:57:31;20.10;99.90
981;DHT22;479;53.514;9.994;2023-09-19T14:59:58;20.00;99.90
981;DHT22;479;53.514;9.994;2023-09-19T15:02:26;19.90;99.90
981;DHT22;479;53.514;9.994;2023-09-19T15:04:53;19.90;99.90
981;DHT22;479;53.514;9.994;2023-09-19T15:07:20;19.80;99.90
981;DHT22;479;53.514;9.994;2023-09-19T15:09:49;19.70;99.90
981;DHT22;479;53.514;9.994;2023-09-19T15:12:15;19.80;99.90
981;DHT22;479;53.514;9.994;2023-09-19T15:14:42;19.70;99.90
981;DHT22;479;53.514;9.994;2023-09-19T15:17:09;19.70;99.90
981;DHT22;479;53.514;9.994;2023-09-19T15:19:36;19.70;99.90
981;DHT22;479;53.514;9.994;2023-09-19T15:22:04;19.70;99.90
981;DHT22;479;53.514;9.994;2023-09-19T15:24:32;19.70;99.90
981;DHT22;479;53.514;9.994;2023-09-19T15:27:00;19.60;99.90
981;DHT22;479;53.514;9.994;2023-09-19T15:29:28;19.70;99.90
981;DHT22;479;53.514;9.994;2023-09-19T15:31:55;19.80;99.90
981;DHT22;479;53.514;9.994;2023-09-19T15:34:24;19.70;99.90
981;DHT22;479;53.514;9.994;2023-09-19T15:36:51;19.80;99.90
981;DHT22;479;53.514;9.994;2023-09-19T15:39:18;19.80;99.90
981;DHT22;479;53.514;9.994;2023-09-19T15:41:48;19.70;99.90
981;DHT22;479;53.514;9.994;2023-09-19T15:44:18;19.70;99.90
981;DHT22;479;53.514;9.994;2023-09-19T15:46:47;19.60;99.90
981;DHT22;479;53.514;9.994;2023-09-19T15:49:14;19.60;99.90
981;DHT22;479;53.514;9.994;2023-09-19T15:51:41;19.60;99.90
981;DHT22;479;53.514;9.994;2023-09-19T15:54:10;19.60;99.90
981;DHT22;479;53.514;9.994;2023-09-19T15:56:39;19.60;99.90
981;DHT22;479;53.514;9.994;2023-09-19T15:59:07;19.50;99.90
981;DHT22;479;53.514;9.994;2023-09-19T16:01:37;19.50;99.90
981;DHT22;479;53.514;9.994;2023-09-19T16:04:06;19.50;99.90
981;DHT22;479;53.514;9.994;2023-09-19T16:06:36;19.50;99.90
981;DHT22;479;53.514;9.994;2023-09-19T16:09:04;19.60;99.90
981;DHT22;479;53.514;9.994;2023-09-19T16:11:32;19.50;99.90
981;DHT22;479;53.514;9.994;2023-09-19T16:14:01;19.50;99.90
981;DHT22;479;53.514;9.994;2023-09-19T16:16:28;19.40;99.90
981;DHT22;479;53.514;9.994;2023-09-19T16:18:59;19.40;99.90
981;DHT22;479;53.514;9.994;2023-09-19T16:21:30;19.40;99.90
981;DHT22;479;53.514;9.994;2023-09-19T16:23:59;19.40;99.90
981;DHT22;479;53.514;9.994;2023-09-19T16:26:27;19.30;99.90
981;DHT22;479;53.514;9.994;2023-09-19T16:28:56;19.30;99.90
981;DHT22;479;53.514;9.994;2023-09-19T16:31:26;19.30;99.90
981;DHT22;479;53.514;9.994;2023-09-19T16:33:53;19.30;99.90
981;DHT22;479;53.514;9.994;2023-09-19T16:36:23;19.30;99.90
981;DHT22;479;53.514;9.994;2023-09-19T16:38:50;19.30;99.90
981;DHT22;479;53.514;9.994;2023-09-19T16:41:18;19.30;99.90
981;DHT22;479;53.514;9.994;2023-09-19T16:43:49;19.30;99.90
981;DHT22;479;53.514;9.994;2023-09-19T16:46:16;19.30;99.90
981;DHT22;479;53.514;9.994;2023-09-19T16:48:44;19.30;99.90
981;DHT22;479;53.514;9.994;2023-09-19T16:51:13;19.20;99.90
981;DHT22;479;53.514;9.994;2023-09-19T16:53:43;19.20;99.90
981;DHT22;479;53.514;9.994;2023-09-19T16:56:15;19.20;99.90